Ana Sayfa
METAR-TAF:

METAR-TAF

Havaalanları :

Bacău, Romanya

Enlem: 46-35N, Boylam: 026-58E, yükseklik: 184 m

Güncel hava durumu gözlemi

Rapor saat 21:30 UTC de 31 dakika önce yapıldı.
Rüzgar güneydan 8 kt
Sıcaklık 8°C
Nem 87%
Basınç 1033 hPa
Görüş mesafesi: 8000 m
500 ft yükseklikte parçalı çok bulutlu
800 ft yükseklikte çok bulutlu
hafif çisenti

METAR: LRBC 122130Z 17008KT 8000 -DZ BKN005 OVC008 08/06 Q1033 R16/19//95

Saat: 00:01 (22:01 UTC)

Tahmin

Rapor saat 20:00 UTC de 2 saat ve 1 dakika önce yapıldı.
Ayın 12'si saat 21 UTC'den ayın 13'si saat 06 UTC'ye kadar geçerli Tahmin
Rüzgar güney/güneydoğudan 6 kt
Görüş mesafesi 10 km veya daha fazla
1000 ft yükseklikte çok bulutlu
Geçici
ayın 12'si saat 21 UTC'den ayın 13'si saat 06 UTC'ye kadar
Görüş mesafesi: 5000 m
500 ft yükseklikte parçalı çok bulutlu
1000 ft yükseklikte çok bulutlu
hafif çisenti, Pus

TAF: LRBC 122000Z 1221/1306 16006KT 9999 OVC010 TEMPO 1221/1306 5000 -DZ BR BKN005 OVC010

4.000'den fazla havaalanı için hava durumu gözlemleri ve tahminleri (METAR ve TAF raporları).

Kullanılabilir istasyonlar harita üzerinde sarı ve kırmızı noktalarla gösterilir.

İstasyonun adını görmek için fareyi noktanın üzerinde gezdirin.

Sonrasında hava gözlem ve tahminlerini görmek için tıklayın.

Haritayı değiştirmek için: yaklaştırmak için siyah artı işaretli yeşil düğmeye ve uzaklaştırmak için de eksi işaretli düğmeye hızla tıklayın; bitişik haritalar için yeşil okları kullanın.


METAR-TAF: